createdAt,value
2022-09-25T01:46:28.613Z,23.10
2022-09-25T01:59:45.842Z,23.50
2022-09-25T02:02:28.928Z,23.50
2022-09-25T02:18:38.716Z,23.60
2022-09-25T02:21:21.402Z,24.00
2022-09-25T02:24:02.801Z,23.80
2022-09-25T02:26:40.110Z,23.80
2022-09-25T02:29:17.146Z,23.80
2022-09-25T02:31:57.018Z,24.00
2022-09-25T02:34:34.054Z,24.20
2022-09-25T02:37:14.183Z,24.20
2022-09-25T02:39:53.152Z,24.10
2022-09-25T02:42:36.998Z,24.00
2022-09-25T04:21:29.626Z,22.70
2022-09-25T04:37:30.028Z,22.20
2022-09-25T04:42:46.088Z,22.10
2022-09-25T04:50:34.827Z,21.80
2022-09-25T04:53:14.489Z,21.50
2022-09-25T04:55:52.358Z,21.20
2022-09-25T04:58:28.192Z,21.20
2022-09-25T05:01:08.662Z,20.80
2022-09-25T05:03:44.489Z,20.80
2022-09-25T05:06:19.725Z,20.80
2022-09-25T05:08:59.013Z,20.70
2022-09-25T05:11:35.947Z,20.80
2022-09-25T05:14:11.229Z,20.70
2022-09-25T05:16:47.378Z,20.60
2022-09-25T05:19:22.798Z,20.60
2022-09-25T05:21:59.029Z,20.50
2022-09-25T05:24:34.244Z,20.60
2022-09-25T05:27:11.613Z,20.40
2022-09-25T05:29:46.635Z,20.50
2022-09-25T05:32:21.958Z,20.60
2022-09-25T05:34:56.986Z,20.60
2022-09-25T05:37:32.160Z,20.70
2022-09-25T05:40:09.158Z,20.70
2022-09-25T05:42:47.004Z,20.80
2022-09-25T05:45:23.657Z,20.90
2022-09-25T05:48:09.167Z,20.80
2022-09-25T05:50:44.273Z,20.60
2022-09-25T05:53:19.827Z,20.50
2022-09-25T05:55:58.790Z,20.30
2022-09-25T05:58:37.629Z,20.30
2022-09-25T06:01:13.107Z,20.40
2022-09-25T06:03:48.152Z,20.30
2022-09-25T06:06:27.509Z,20.30
2022-09-25T06:09:03.660Z,20.30
2022-09-25T06:11:38.764Z,20.20
2022-09-25T06:14:16.839Z,20.10
2022-09-25T06:16:53.833Z,19.90
2022-09-25T06:19:30.917Z,19.80
2022-09-25T06:22:06.112Z,19.80
2022-09-25T06:24:41.347Z,19.70
2022-09-25T06:27:16.912Z,19.70
2022-09-25T06:29:53.915Z,19.60
2022-09-25T06:32:29.074Z,19.50
2022-09-25T06:35:04.082Z,19.60
2022-09-25T06:37:39.071Z,19.80
2022-09-25T06:40:15.920Z,19.80
2022-09-25T06:42:51.259Z,19.80
2022-09-25T06:45:28.702Z,19.70
2022-09-25T06:48:07.830Z,19.70
2022-09-25T06:50:47.606Z,19.80
2022-09-25T06:53:24.813Z,19.80
2022-09-25T06:56:06.534Z,19.80
2022-09-25T06:58:41.863Z,19.60
2022-09-25T07:01:18.822Z,19.60
2022-09-25T07:03:53.488Z,19.70
2022-09-25T07:06:30.702Z,19.70
2022-09-25T07:09:08.194Z,19.80
2022-09-25T07:11:46.729Z,19.80
2022-09-25T07:14:22.433Z,19.90
2022-09-25T07:17:00.680Z,19.90
2022-09-25T07:19:35.670Z,19.90
2022-09-25T07:22:11.674Z,19.90
2022-09-25T07:24:46.847Z,19.90
2022-09-25T07:27:21.914Z,20.00
2022-09-25T07:29:58.180Z,20.00
2022-09-25T07:32:35.422Z,20.00
2022-09-25T07:35:11.362Z,19.90
2022-09-25T07:37:49.490Z,19.80
2022-09-25T08:11:45.951Z,19.80
2022-09-25T08:14:27.217Z,19.70
2022-09-25T08:17:03.958Z,19.70
2022-09-25T08:19:40.913Z,19.70
2022-09-25T08:22:16.271Z,19.70
2022-09-25T08:24:51.422Z,19.60
2022-09-25T09:56:22.890Z,19.30
2022-09-25T09:59:02.198Z,19.30
2022-09-25T10:01:42.519Z,19.10
2022-09-25T10:04:20.429Z,19.10
2022-09-25T10:06:59.665Z,19.00
2022-09-25T10:09:35.235Z,18.90
2022-09-25T10:12:20.914Z,18.80
2022-09-25T10:14:56.612Z,18.80
2022-09-25T10:17:34.967Z,18.70
2022-09-25T10:20:19.219Z,18.60
2022-09-25T10:22:58.240Z,18.60
2022-09-25T10:25:55.927Z,18.60
2022-09-25T10:28:39.583Z,18.60
2022-09-25T10:31:15.590Z,18.70
2022-09-25T10:34:07.652Z,18.50
2022-09-25T10:36:47.638Z,18.60
2022-09-25T10:39:49.547Z,18.50
2022-09-25T10:42:42.940Z,18.50
2022-09-25T10:45:37.534Z,18.50
2022-09-25T10:48:46.699Z,18.50
2022-09-25T10:51:23.149Z,18.40
2022-09-25T10:54:15.527Z,18.40
2022-09-25T10:56:52.608Z,18.40
2022-09-25T10:59:28.939Z,18.40
2022-09-25T11:02:06.900Z,18.50
2022-09-25T11:04:42.387Z,18.40
2022-09-25T11:07:29.461Z,18.40
2022-09-25T11:10:05.203Z,18.40
2022-09-25T11:12:42.260Z,18.40
2022-09-25T11:15:26.049Z,18.30
2022-09-25T11:18:07.835Z,18.30
2022-09-25T11:20:43.852Z,18.20
2022-09-25T11:23:34.084Z,18.20
2022-09-25T11:26:13.601Z,18.10
2022-09-25T11:28:57.223Z,18.10
2022-09-25T11:31:39.949Z,18.00
2022-09-25T11:34:23.883Z,18.00
2022-09-25T11:37:07.043Z,18.00
2022-09-25T11:40:04.454Z,18.00
2022-09-25T11:42:46.004Z,18.00
2022-09-25T11:45:32.006Z,18.00
2022-09-25T11:48:14.502Z,18.00
2022-09-25T11:51:01.886Z,17.90
2022-09-25T11:53:48.000Z,17.90
2022-09-25T11:56:34.480Z,17.80
2022-09-25T11:59:24.178Z,17.80
2022-09-25T12:02:08.164Z,17.80
2022-09-25T12:05:11.252Z,17.80
2022-09-25T12:11:17.831Z,17.80
2022-09-25T12:14:05.003Z,17.80
2022-09-25T12:16:50.331Z,17.80
2022-09-25T12:19:36.482Z,17.80
2022-09-25T12:22:20.503Z,17.80
2022-09-25T12:25:05.975Z,17.70
2022-09-25T12:27:53.284Z,17.70
2022-09-25T12:30:36.242Z,17.60
2022-09-25T12:33:33.436Z,17.60
2022-09-25T12:36:15.026Z,17.60
2022-09-25T12:38:57.050Z,17.60
2022-09-25T12:41:38.513Z,17.60
2022-09-25T12:44:27.123Z,17.60
2022-09-25T12:47:09.939Z,17.50
2022-09-25T12:49:48.394Z,17.50
2022-09-25T12:52:29.217Z,17.50
2022-09-25T12:55:08.978Z,17.50
2022-09-25T12:57:50.076Z,17.40
2022-09-25T13:00:30.013Z,17.40
2022-09-25T13:03:09.860Z,17.30
2022-09-25T13:05:49.312Z,17.30
2022-09-25T13:08:31.720Z,17.30
2022-09-25T13:11:11.207Z,17.30
2022-09-25T13:13:49.507Z,17.30
2022-09-25T13:16:30.053Z,17.30
2022-09-25T13:19:29.099Z,17.30
2022-09-25T13:22:11.352Z,17.30
2022-09-25T13:24:51.687Z,17.30
2022-09-25T13:27:37.405Z,17.30
2022-09-25T13:30:24.710Z,17.30
2022-09-25T13:33:04.872Z,17.20
2022-09-25T13:35:42.508Z,17.30
2022-09-25T13:38:43.284Z,17.30
2022-09-25T13:41:18.285Z,17.20
2022-09-25T13:43:54.449Z,17.20
2022-09-25T13:46:35.356Z,17.20
2022-09-25T13:49:41.670Z,17.10
2022-09-25T13:52:33.989Z,17.10
2022-09-25T13:55:22.727Z,17.10
2022-09-25T13:58:20.591Z,17.10
2022-09-25T14:01:00.435Z,17.10
2022-09-25T14:03:43.163Z,17.10
2022-09-25T14:06:24.766Z,17.10
2022-09-25T14:09:03.928Z,17.10
2022-09-25T14:11:41.845Z,17.10
2022-09-25T14:14:26.958Z,17.10
2022-09-25T14:17:03.387Z,17.00
2022-09-25T14:19:40.202Z,17.10
2022-09-25T14:22:26.450Z,17.00
2022-09-25T14:25:01.620Z,17.00
2022-09-25T14:27:37.507Z,17.00
2022-09-25T14:30:18.649Z,17.00
2022-09-25T14:33:32.518Z,17.00
2022-09-25T14:36:18.674Z,17.00
2022-09-25T14:39:09.306Z,16.90
2022-09-25T14:42:20.454Z,17.00
2022-09-25T14:45:19.175Z,16.90
2022-09-25T14:47:56.501Z,16.90
2022-09-25T14:50:33.922Z,16.90
2022-09-25T14:53:11.947Z,16.90
2022-09-25T14:55:54.598Z,16.80
2022-09-25T14:58:34.108Z,16.80
2022-09-25T15:01:19.559Z,16.80
2022-09-25T15:03:56.057Z,16.80
2022-09-25T15:06:35.719Z,16.70
2022-09-25T15:09:34.301Z,16.70
2022-09-25T15:12:23.772Z,16.70
2022-09-25T15:15:08.101Z,16.80
2022-09-25T15:17:51.164Z,16.70
2022-09-25T15:20:29.343Z,16.70
2022-09-25T15:23:08.867Z,16.70
2022-09-25T15:25:49.689Z,16.70
2022-09-25T15:28:30.166Z,16.70
2022-09-25T15:31:10.447Z,16.80
2022-09-25T15:33:47.324Z,16.80
2022-09-25T15:36:27.530Z,16.70
2022-09-25T15:39:07.330Z,16.70
2022-09-25T15:41:43.496Z,16.70
2022-09-25T15:44:25.063Z,16.60
2022-09-25T15:47:02.457Z,16.60
2022-09-25T15:49:40.506Z,16.60
2022-09-25T15:52:26.042Z,16.60
2022-09-25T15:55:06.077Z,16.70
2022-09-25T15:57:41.593Z,16.70
2022-09-25T16:00:46.928Z,16.60
2022-09-25T16:03:44.379Z,16.70
2022-09-25T16:06:21.412Z,16.60
2022-09-25T16:09:30.759Z,16.60
2022-09-25T16:12:35.035Z,16.60
2022-09-25T16:15:42.947Z,16.60
2022-09-25T16:18:36.128Z,16.50
2022-09-25T16:21:20.982Z,16.40
2022-09-25T16:24:04.414Z,16.40
2022-09-25T16:26:43.681Z,16.30
2022-09-25T16:29:26.086Z,16.30
2022-09-25T16:32:07.360Z,16.30
2022-09-25T16:34:46.268Z,16.30
2022-09-25T16:37:26.105Z,16.30
2022-09-25T16:40:25.791Z,16.20
2022-09-25T16:43:02.803Z,16.20
2022-09-25T16:45:42.775Z,16.20
2022-09-25T16:48:35.155Z,16.10
2022-09-25T16:51:16.795Z,16.20
2022-09-25T16:53:52.644Z,16.10
2022-09-25T16:56:28.764Z,16.10
2022-09-25T16:59:04.414Z,16.10
2022-09-25T17:01:40.125Z,16.10
2022-09-25T17:04:15.861Z,16.10
2022-09-25T17:06:53.068Z,16.10
2022-09-25T17:09:30.879Z,16.00
2022-09-25T17:12:09.137Z,16.00
2022-09-25T17:14:45.370Z,15.90
2022-09-25T17:17:22.294Z,16.00
2022-09-25T17:19:57.597Z,16.00
2022-09-25T17:22:35.713Z,16.00
2022-09-25T17:25:26.927Z,16.00
2022-09-25T17:28:02.392Z,16.10
2022-09-25T17:30:37.359Z,16.10
2022-09-25T17:33:18.147Z,16.10
2022-09-25T17:36:17.040Z,16.00
2022-09-25T17:38:54.339Z,16.00
2022-09-25T17:41:38.471Z,16.00
2022-09-25T17:44:17.774Z,16.00
2022-09-25T17:46:53.549Z,16.00
2022-09-25T17:49:29.108Z,16.00
2022-09-25T17:52:04.799Z,15.90
2022-09-25T17:54:44.649Z,15.90
2022-09-25T17:57:20.369Z,15.90
2022-09-25T17:59:56.045Z,15.90
2022-09-25T18:02:31.623Z,15.90
2022-09-25T18:05:07.645Z,16.00
2022-09-25T18:07:43.026Z,16.00
2022-09-25T18:10:21.606Z,16.00
2022-09-25T18:12:57.943Z,15.90
2022-09-25T18:15:33.692Z,15.90
2022-09-25T18:18:08.817Z,15.90
2022-09-25T18:20:59.671Z,15.90
2022-09-25T18:23:35.710Z,15.80
2022-09-25T18:26:15.064Z,15.80
2022-09-25T18:28:51.946Z,15.80
2022-09-25T18:31:28.383Z,15.80
2022-09-25T18:34:03.541Z,15.70
2022-09-25T18:36:39.339Z,15.70
2022-09-25T18:39:19.105Z,15.70
2022-09-25T18:41:57.936Z,15.70
2022-09-25T18:44:32.953Z,15.70
2022-09-25T18:47:08.868Z,15.70
2022-09-25T18:49:44.013Z,15.70
2022-09-25T18:52:20.028Z,15.60
2022-09-25T18:54:55.426Z,15.60
2022-09-25T18:57:36.277Z,15.60
2022-09-25T19:00:14.716Z,15.70
2022-09-25T19:02:51.166Z,15.70
2022-09-25T19:05:27.575Z,15.80
2022-09-25T19:08:05.097Z,15.80
2022-09-25T19:10:40.294Z,15.80
2022-09-25T19:13:18.147Z,15.90
2022-09-25T19:15:56.290Z,15.90
2022-09-25T19:18:31.720Z,15.90
2022-09-25T19:21:07.644Z,15.90
2022-09-25T19:23:44.585Z,15.90
2022-09-25T19:26:21.095Z,15.80
2022-09-25T19:28:58.415Z,15.80
2022-09-25T19:31:34.700Z,15.90
2022-09-25T19:34:10.064Z,15.80
2022-09-25T19:36:49.114Z,15.80
2022-09-25T19:39:28.586Z,15.80
2022-09-25T19:42:03.654Z,15.80
2022-09-25T19:44:41.525Z,15.80
2022-09-25T19:47:16.861Z,15.70
2022-09-25T19:49:52.072Z,15.70
2022-09-25T19:52:27.633Z,15.70
2022-09-25T19:55:03.674Z,15.70
2022-09-25T19:57:41.082Z,15.70
2022-09-25T20:00:19.866Z,15.70
2022-09-25T20:02:56.345Z,15.70
2022-09-25T20:05:32.009Z,15.70
2022-09-25T20:08:07.243Z,15.80
2022-09-25T20:10:44.510Z,15.80
2022-09-25T20:13:19.757Z,15.80
2022-09-25T20:15:59.798Z,15.80
2022-09-25T20:18:35.063Z,15.90
2022-09-25T20:21:11.957Z,15.90
2022-09-25T20:23:47.048Z,15.90
2022-09-25T20:26:22.421Z,15.90
2022-09-25T20:28:59.908Z,15.90
2022-09-25T20:31:37.544Z,15.90
2022-09-25T20:34:14.975Z,15.90
2022-09-25T20:36:51.289Z,16.00
2022-09-25T20:39:29.076Z,16.00
2022-09-25T20:42:04.712Z,16.00
2022-09-25T20:44:39.768Z,16.10
2022-09-25T20:47:17.184Z,16.10
2022-09-25T20:49:52.321Z,16.20
2022-09-25T20:52:27.562Z,16.20
2022-09-25T20:55:03.785Z,16.20
2022-09-25T20:57:39.471Z,16.30
2022-09-25T21:00:19.178Z,16.30
2022-09-25T21:02:58.149Z,16.40
2022-09-25T21:05:33.336Z,16.50
2022-09-25T21:08:12.303Z,16.60
2022-09-25T21:10:49.124Z,16.60
2022-09-25T21:13:24.271Z,16.80
2022-09-25T21:16:06.183Z,16.80
2022-09-25T21:18:43.423Z,16.90
2022-09-25T21:21:19.686Z,16.90
2022-09-25T21:23:55.837Z,16.90
2022-09-25T21:26:32.203Z,16.90
2022-09-25T21:29:08.729Z,16.90
2022-09-25T21:31:49.928Z,16.90
2022-09-25T21:34:28.137Z,16.80
2022-09-25T21:37:06.875Z,16.70
2022-09-25T21:39:42.788Z,16.70
2022-09-25T21:42:19.091Z,16.60
2022-09-25T21:44:54.297Z,16.70
2022-09-25T21:47:32.750Z,16.70
2022-09-25T21:50:11.162Z,16.70
2022-09-25T21:52:46.782Z,16.80
2022-09-25T21:55:21.816Z,16.80
2022-09-25T21:57:57.902Z,16.80
2022-09-25T22:00:32.886Z,16.80
2022-09-25T22:03:09.367Z,16.70
2022-09-25T22:05:46.665Z,16.80
2022-09-25T22:08:22.823Z,16.80
2022-09-25T22:11:00.891Z,16.80
2022-09-25T22:13:37.514Z,16.80
2022-09-25T22:16:15.419Z,16.90
2022-09-25T22:18:51.914Z,17.00
2022-09-25T22:21:31.014Z,17.00
2022-09-25T22:24:08.429Z,17.10
2022-09-25T22:26:48.226Z,17.00
2022-09-25T22:29:24.002Z,17.00
2022-09-25T22:31:58.965Z,17.10
2022-09-25T22:34:34.353Z,17.20
2022-09-25T22:37:12.795Z,17.20
2022-09-25T22:39:48.016Z,17.30
2022-09-25T22:42:23.451Z,17.50
2022-09-25T22:45:00.016Z,17.70
2022-09-25T22:47:35.746Z,17.90
2022-09-25T22:50:11.678Z,18.00
2022-09-25T22:52:48.996Z,18.10
2022-09-25T22:55:25.254Z,18.10
2022-09-25T22:58:00.580Z,18.10
2022-09-25T23:00:35.991Z,18.10
2022-09-25T23:03:11.380Z,18.20
2022-09-25T23:05:46.731Z,18.20
2022-09-25T23:08:23.752Z,18.20
2022-09-25T23:11:07.046Z,18.20
2022-09-25T23:13:43.992Z,18.10
2022-09-25T23:16:19.207Z,18.10
2022-09-25T23:18:56.195Z,18.10
2022-09-25T23:21:34.312Z,18.10
2022-09-25T23:24:13.167Z,18.10
2022-09-25T23:26:48.492Z,18.00
2022-09-25T23:29:24.857Z,17.80
2022-09-25T23:31:59.848Z,17.70
2022-09-25T23:34:35.163Z,17.70
2022-09-25T23:37:10.949Z,17.70
2022-09-25T23:39:50.244Z,17.70
2022-09-25T23:42:27.171Z,17.80
2022-09-25T23:45:03.751Z,17.90
2022-09-25T23:47:40.090Z,18.00
2022-09-25T23:50:15.877Z,18.00
2022-09-25T23:52:51.232Z,18.10
2022-09-25T23:55:28.339Z,18.10
2022-09-25T23:58:06.834Z,18.10
